Time;durP1;ratioP1;P1;durP2;ratioP2;P2;SDS_P1;SDS_P2;PMS_P1;PMS_P2;Temp;Humidity;BMP_temperature;BMP_pressure;BME280_temperature;BME280_humidity;BME280_pressure;Samples;Min_cycle;Max_cycle;Signal;HPM_P1;HPM_P2
2023/10/07 00:00:33;;;;;;;0.10;0.10;;;;;;;;;;4944278;28;20112;-90
2023/10/07 00:02:59;;;;;;;0.10;0.10;;;;;;;;;;4945547;28;20046;-91
2023/10/07 00:05:27;;;;;;;0.20;0.20;;;;;;;;;;4943229;28;20129;-91
2023/10/07 00:08:00;;;;;;;0.20;0.20;;;;;;;;;;4943502;28;20050;-91
2023/10/07 00:10:27;;;;;;;0.20;0.20;;;;;;;;;;4943813;28;20078;-90
2023/10/07 00:12:53;;;;;;;0.10;0.10;;;;;;;;;;4943269;28;20043;-90
2023/10/07 00:15:21;;;;;;;0.65;0.30;;;;;;;;;;4943339;28;20042;-90
2023/10/07 00:17:50;;;;;;;0.10;0.10;;;;;;;;;;4943572;28;20042;-90
2023/10/07 00:20:20;;;;;;;0.47;0.47;;;;;;;;;;4943251;28;20070;-90
2023/10/07 00:22:53;;;;;;;0.10;0.10;;;;;;;;;;4943699;28;20046;-90
2023/10/07 00:25:19;;;;;;;0.10;0.10;;;;;;;;;;4959292;28;20522;-90
2023/10/07 00:27:48;;;;;;;0.10;0.10;;;;;;;;;;4943114;28;20144;-90
2023/10/07 00:30:16;;;;;;;0.10;0.10;;;;;;;;;;4942810;28;20057;-89
2023/10/07 00:32:45;;;;;;;0.20;0.20;;;;;;;;;;4942417;28;20376;-89
2023/10/07 00:35:11;;;;;;;0.20;0.20;;;;;;;;;;4943435;28;20194;-90
2023/10/07 00:37:40;;;;;;;0.20;0.20;;;;;;;;;;4943105;28;20049;-89
2023/10/07 00:40:14;;;;;;;0.10;0.10;;;;;;;;;;4943071;28;20113;-91
2023/10/07 00:42:47;;;;;;;0.60;0.60;;;;;;;;;;4958829;28;20039;-90
2023/10/07 00:45:16;;;;;;;0.10;0.10;;;;;;;;;;4943135;28;20097;-89
2023/10/07 00:47:42;;;;;;;0.10;0.10;;;;;;;;;;4943183;28;20039;-90
2023/10/07 00:50:11;;;;;;;0.10;0.10;;;;;;;;;;4942625;28;20534;-89
2023/10/07 00:52:41;;;;;;;0.20;0.20;;;;;;;;;;4942798;28;20122;-89
2023/10/07 01:00:32;;;;;;;0.60;0.60;;;;;;;;;;4942343;28;20050;-89
2023/10/07 01:03:47;;;;;;;0.10;0.10;;;;;;;;;;4946036;28;20126;-90
2023/10/07 01:08:35;;;;;;;0.10;0.10;;;;;;;;;;4943199;28;20097;-90
2023/10/07 01:13:36;;;;;;;0.10;0.10;;;;;;;;;;4943859;28;20471;-90
2023/10/07 01:16:13;;;;;;;0.20;0.20;;;;;;;;;;4942584;28;20491;-90
2023/10/07 01:18:39;;;;;;;1.05;0.95;;;;;;;;;;4943198;28;20054;-90
2023/10/07 01:21:11;;;;;;;0.10;0.10;;;;;;;;;;4958057;28;20248;-90
2023/10/07 01:23:39;;;;;;;0.10;0.10;;;;;;;;;;4942170;28;20046;-90
2023/10/07 01:26:15;;;;;;;0.20;0.20;;;;;;;;;;4942240;28;20088;-89
2023/10/07 01:28:43;;;;;;;0.10;0.10;;;;;;;;;;4941724;28;20039;-91
2023/10/07 01:31:18;;;;;;;0.10;0.10;;;;;;;;;;4941592;28;20102;-90
2023/10/07 01:33:47;;;;;;;1.38;0.40;;;;;;;;;;4942980;28;20431;-90
2023/10/07 01:36:24;;;;;;;0.10;0.10;;;;;;;;;;4943073;28;20217;-90
2023/10/07 01:38:52;;;;;;;0.10;0.10;;;;;;;;;;4942862;28;20102;-90
2023/10/07 01:41:19;;;;;;;0.10;0.10;;;;;;;;;;4942591;28;20078;-90
2023/10/07 01:44:08;;;;;;;0.20;0.20;;;;;;;;;;4942095;28;20464;-90
2023/10/07 01:46:34;;;;;;;0.10;0.10;;;;;;;;;;4940956;28;20047;-90
2023/10/07 01:49:06;;;;;;;0.20;0.20;;;;;;;;;;4941523;28;20050;-90
2023/10/07 01:51:32;;;;;;;1.27;0.52;;;;;;;;;;4927051;28;20061;-90
2023/10/07 01:54:02;;;;;;;0.10;0.10;;;;;;;;;;4941718;28;20039;-90
2023/10/07 01:56:29;;;;;;;0.10;0.10;;;;;;;;;;4942072;28;20061;-90
2023/10/07 01:58:57;;;;;;;0.10;0.10;;;;;;;;;;4956983;28;20047;-91
2023/10/07 02:01:28;;;;;;;0.10;0.10;;;;;;;;;;4941706;28;20488;-91
2023/10/07 02:03:57;;;;;;;0.10;0.10;;;;;;;;;;4926121;28;20051;-91
2023/10/07 02:06:26;;;;;;;0.10;0.10;;;;;;;;;;4941505;28;20034;-91
2023/10/07 02:08:53;;;;;;;0.10;0.10;;;;;;;;;;4941731;28;20047;-90
2023/10/07 02:11:30;;;;;;;0.22;0.22;;;;;;;;;;4941375;28;20050;-90
2023/10/07 02:13:56;;;;;;;0.10;0.10;;;;;;;;;;4942346;28;20376;-90
2023/10/07 02:16:27;;;;;;;0.10;0.10;;;;;;;;;;4941187;28;20039;-90
2023/10/07 02:18:53;;;;;;;0.10;0.10;;;;;;;;;;4956943;28;20047;-91
2023/10/07 02:21:22;;;;;;;0.57;0.43;;;;;;;;;;4940991;28;20039;-91
2023/10/07 02:23:49;;;;;;;0.30;0.30;;;;;;;;;;4941073;28;20403;-91
2023/10/07 02:26:19;;;;;;;0.20;0.20;;;;;;;;;;4957251;28;20412;-89
2023/10/07 02:28:45;;;;;;;0.20;0.20;;;;;;;;;;4941519;28;20051;-90
2023/10/07 02:31:18;;;;;;;0.20;0.20;;;;;;;;;;4941163;28;20065;-89
2023/10/07 02:33:45;;;;;;;0.10;0.10;;;;;;;;;;4941509;28;20082;-89
2023/10/07 02:36:12;;;;;;;0.13;0.13;;;;;;;;;;4940851;28;20054;-89
2023/10/07 02:38:42;;;;;;;0.10;0.10;;;;;;;;;;4940873;28;20496;-89
2023/10/07 02:41:17;;;;;;;0.10;0.10;;;;;;;;;;4941045;28;20054;-89
2023/10/07 02:43:48;;;;;;;0.20;0.20;;;;;;;;;;4956703;28;20121;-89
2023/10/07 02:46:25;;;;;;;0.10;0.10;;;;;;;;;;4940616;28;20059;-90
2023/10/07 02:48:55;;;;;;;0.40;0.28;;;;;;;;;;4942028;28;20042;-89
2023/10/07 02:51:21;;;;;;;0.10;0.10;;;;;;;;;;4940831;28;20049;-89
2023/10/07 02:53:53;;;;;;;0.10;0.10;;;;;;;;;;4940333;28;20125;-89
2023/10/07 02:56:24;;;;;;;0.10;0.10;;;;;;;;;;4941447;28;20404;-90
2023/10/07 02:59:03;;;;;;;0.10;0.10;;;;;;;;;;4940260;28;20093;-89
2023/10/07 03:01:29;;;;;;;0.10;0.10;;;;;;;;;;4942283;28;20042;-91
2023/10/07 03:03:55;;;;;;;0.30;0.30;;;;;;;;;;4940451;28;20125;-90
2023/10/07 03:06:28;;;;;;;0.10;0.10;;;;;;;;;;4940985;28;20081;-90
2023/10/07 03:09:00;;;;;;;0.63;0.60;;;;;;;;;;4941349;28;20042;-90
2023/10/07 03:11:39;;;;;;;0.22;0.22;;;;;;;;;;4941623;28;20078;-91
2023/10/07 03:14:05;;;;;;;0.10;0.10;;;;;;;;;;4942656;28;20065;-91
2023/10/07 03:16:46;;;;;;;0.20;0.20;;;;;;;;;;4940597;28;20490;-91
2023/10/07 03:19:21;;;;;;;0.10;0.10;;;;;;;;;;4956532;28;20047;-91
2023/10/07 03:24:32;;;;;;;0.57;0.30;;;;;;;;;;4941068;28;20043;-91
2023/10/07 03:27:10;;;;;;;0.10;0.10;;;;;;;;;;4942437;28;20106;-90
2023/10/07 03:29:37;;;;;;;0.20;0.20;;;;;;;;;;4942331;28;20416;-89
2023/10/07 03:32:12;;;;;;;0.10;0.10;;;;;;;;;;4940259;28;20051;-89
2023/10/07 03:34:39;;;;;;;0.30;0.25;;;;;;;;;;4940136;28;20118;-90
2023/10/07 03:42:19;;;;;;;1.42;0.45;;;;;;;;;;4956027;28;20046;-90
2023/10/07 03:44:49;;;;;;;0.10;0.10;;;;;;;;;;4939867;28;20227;-90
2023/10/07 03:47:15;;;;;;;0.10;0.10;;;;;;;;;;4956391;28;20118;-90
2023/10/07 03:49:41;;;;;;;0.75;0.57;;;;;;;;;;4955990;28;20082;-90
2023/10/07 03:52:08;;;;;;;0.10;0.10;;;;;;;;;;4940326;28;20395;-90
2023/10/07 03:54:34;;;;;;;0.10;0.10;;;;;;;;;;4939937;28;20046;-90
2023/10/07 03:57:03;;;;;;;0.73;0.73;;;;;;;;;;4940136;28;20043;-89
2023/10/07 03:59:32;;;;;;;0.10;0.10;;;;;;;;;;4940099;28;20043;-90
2023/10/07 04:01:58;;;;;;;0.30;0.30;;;;;;;;;;4940072;28;20178;-90
2023/10/07 04:04:24;;;;;;;0.10;0.10;;;;;;;;;;4939851;28;20043;-90
2023/10/07 04:06:50;;;;;;;0.10;0.10;;;;;;;;;;4940056;28;20133;-90
2023/10/07 04:09:17;;;;;;;0.10;0.10;;;;;;;;;;4942082;28;20488;-90
2023/10/07 04:11:49;;;;;;;0.10;0.10;;;;;;;;;;4943879;28;20046;-90
2023/10/07 04:14:35;;;;;;;0.10;0.10;;;;;;;;;;4944695;28;20391;-91
2023/10/07 04:17:11;;;;;;;0.10;0.10;;;;;;;;;;4946043;28;20069;-90
2023/10/07 04:19:52;;;;;;;0.20;0.20;;;;;;;;;;4944268;28;20546;-90
2023/10/07 04:22:18;;;;;;;0.10;0.10;;;;;;;;;;4945467;28;20043;-91
2023/10/07 04:24:45;;;;;;;0.10;0.10;;;;;;;;;;4942931;28;20041;-90
2023/10/07 04:27:19;;;;;;;0.10;0.10;;;;;;;;;;4958989;28;20046;-90
2023/10/07 04:29:46;;;;;;;0.10;0.10;;;;;;;;;;4944535;28;20475;-91
2023/10/07 04:32:21;;;;;;;0.13;0.10;;;;;;;;;;4943223;28;20090;-90
2023/10/07 04:37:47;;;;;;;0.10;0.10;;;;;;;;;;4945894;28;20057;-90
2023/10/07 04:43:00;;;;;;;0.10;0.10;;;;;;;;;;4943471;28;20043;-91
2023/10/07 04:45:36;;;;;;;0.10;0.10;;;;;;;;;;4945299;28;20054;-90
2023/10/07 04:48:23;;;;;;;0.13;0.13;;;;;;;;;;4928189;28;20073;-90
2023/10/07 04:51:03;;;;;;;4.38;0.30;;;;;;;;;;4958741;28;20437;-90
2023/10/07 04:53:37;;;;;;;0.10;0.10;;;;;;;;;;4942071;28;20051;-90
2023/10/07 04:56:04;;;;;;;0.10;0.10;;;;;;;;;;4942237;28;20049;-90
2023/10/07 04:58:30;;;;;;;0.10;0.10;;;;;;;;;;4941795;28;20042;-90
2023/10/07 05:01:04;;;;;;;0.20;0.20;;;;;;;;;;4942441;28;20043;-90
2023/10/07 05:03:30;;;;;;;0.10;0.10;;;;;;;;;;4958128;28;20042;-90
2023/10/07 05:05:58;;;;;;;0.10;0.10;;;;;;;;;;4942176;28;20042;-90
2023/10/07 05:08:27;;;;;;;0.13;0.13;;;;;;;;;;4926943;28;20407;-90
2023/10/07 05:10:53;;;;;;;0.10;0.10;;;;;;;;;;4942870;28;20092;-90
2023/10/07 05:13:19;;;;;;;0.10;0.10;;;;;;;;;;4942588;28;20411;-89
2023/10/07 05:15:45;;;;;;;0.20;0.20;;;;;;;;;;4942546;28;20042;-91
2023/10/07 05:18:16;;;;;;;0.17;0.17;;;;;;;;;;4942417;28;20104;-90
2023/10/07 05:20:42;;;;;;;0.32;0.20;;;;;;;;;;4942377;28;20125;-90
2023/10/07 05:23:13;;;;;;;0.20;0.20;;;;;;;;;;4943085;28;20549;-90
2023/10/07 05:25:44;;;;;;;0.20;0.20;;;;;;;;;;4943065;28;20423;-89
2023/10/07 05:28:16;;;;;;;0.10;0.10;;;;;;;;;;4942933;28;20475;-89
2023/10/07 05:30:50;;;;;;;0.20;0.20;;;;;;;;;;4942775;28;20381;-90
2023/10/07 05:33:16;;;;;;;0.10;0.10;;;;;;;;;;4942778;28;20045;-90
2023/10/07 05:35:43;;;;;;;0.10;0.10;;;;;;;;;;4957624;28;20043;-90
2023/10/07 05:38:12;;;;;;;0.22;0.22;;;;;;;;;;4941537;28;20089;-90
2023/10/07 05:40:39;;;;;;;0.10;0.10;;;;;;;;;;4941672;28;20125;-90
2023/10/07 05:43:08;;;;;;;0.10;0.10;;;;;;;;;;4941597;28;20492;-89
2023/10/07 05:45:35;;;;;;;0.10;0.10;;;;;;;;;;4957391;28;20424;-89
2023/10/07 05:48:01;;;;;;;0.20;0.20;;;;;;;;;;4941488;28;20046;-90
2023/10/07 05:50:27;;;;;;;0.10;0.10;;;;;;;;;;4941362;28;20043;-89
2023/10/07 05:52:54;;;;;;;0.15;0.15;;;;;;;;;;4925452;28;20119;-91
2023/10/07 05:55:22;;;;;;;0.40;0.40;;;;;;;;;;4942011;28;20046;-91
2023/10/07 05:57:48;;;;;;;0.10;0.10;;;;;;;;;;4926136;28;20051;-92
2023/10/07 06:00:17;;;;;;;0.20;0.20;;;;;;;;;;4926232;28;20146;-89
2023/10/07 06:02:43;;;;;;;0.10;0.10;;;;;;;;;;4941142;28;20281;-90
2023/10/07 06:05:12;;;;;;;0.10;0.10;;;;;;;;;;4941509;28;20142;-90
2023/10/07 06:07:38;;;;;;;0.10;0.10;;;;;;;;;;4926062;28;20039;-92
2023/10/07 06:10:09;;;;;;;0.10;0.10;;;;;;;;;;4931859;28;20042;-93
2023/10/07 06:12:44;;;;;;;0.10;0.10;;;;;;;;;;4947213;28;20101;-94
2023/10/07 06:15:10;;;;;;;0.10;0.10;;;;;;;;;;4926636;28;20047;-89
2023/10/07 06:17:38;;;;;;;0.10;0.10;;;;;;;;;;4940727;28;20062;-89
2023/10/07 06:20:14;;;;;;;0.10;0.10;;;;;;;;;;4925821;28;20039;-89
2023/10/07 06:22:48;;;;;;;0.10;0.10;;;;;;;;;;4960188;28;20143;-89
2023/10/07 06:25:17;;;;;;;0.10;0.10;;;;;;;;;;4930304;28;20039;-90
2023/10/07 06:27:43;;;;;;;0.15;0.15;;;;;;;;;;4945698;28;20043;-89
2023/10/07 06:30:19;;;;;;;0.30;0.30;;;;;;;;;;4928067;28;20047;-89
2023/10/07 06:33:06;;;;;;;0.20;0.20;;;;;;;;;;4925655;28;20053;-93
2023/10/07 06:35:33;;;;;;;0.20;0.20;;;;;;;;;;4943490;28;20038;-91
2023/10/07 06:38:03;;;;;;;0.45;0.45;;;;;;;;;;4925906;28;20180;-92
2023/10/07 06:40:40;;;;;;;0.10;0.10;;;;;;;;;;4943452;28;20050;-95
2023/10/07 06:43:08;;;;;;;0.10;0.10;;;;;;;;;;4943019;28;20046;-92
2023/10/07 06:45:44;;;;;;;0.20;0.20;;;;;;;;;;4942288;28;20059;-93
2023/10/07 06:48:11;;;;;;;0.10;0.10;;;;;;;;;;4956860;28;20043;-89
2023/10/07 06:50:41;;;;;;;0.10;0.10;;;;;;;;;;4925181;28;20125;-90
2023/10/07 06:53:11;;;;;;;0.10;0.10;;;;;;;;;;4925213;28;20039;-90
2023/10/07 06:55:41;;;;;;;1.27;0.10;;;;;;;;;;4956416;28;20053;-90
2023/10/07 06:58:07;;;;;;;0.20;0.20;;;;;;;;;;4925025;28;20031;-90
2023/10/07 07:00:49;;;;;;;1.48;0.52;;;;;;;;;;4924446;28;20042;-90
2023/10/07 07:03:18;;;;;;;0.10;0.10;;;;;;;;;;4942770;28;20039;-90
2023/10/07 07:05:48;;;;;;;0.45;0.45;;;;;;;;;;4924903;28;20038;-89
2023/10/07 07:08:14;;;;;;;0.10;0.10;;;;;;;;;;4940827;28;20130;-89
2023/10/07 07:10:40;;;;;;;0.20;0.20;;;;;;;;;;4940204;28;20038;-89
2023/10/07 07:13:15;;;;;;;0.10;0.10;;;;;;;;;;4924801;28;20078;-91
2023/10/07 07:15:41;;;;;;;0.10;0.10;;;;;;;;;;4926066;28;20097;-92
2023/10/07 07:20:49;;;;;;;0.20;0.20;;;;;;;;;;4956285;28;20082;-90
2023/10/07 07:23:16;;;;;;;0.20;0.20;;;;;;;;;;4941347;28;20085;-90
2023/10/07 07:25:53;;;;;;;0.10;0.10;;;;;;;;;;4925201;28;20038;-91
2023/10/07 07:28:19;;;;;;;0.10;0.10;;;;;;;;;;4941674;28;20046;-92
2023/10/07 07:30:45;;;;;;;0.20;0.20;;;;;;;;;;4941697;28;20098;-92
2023/10/07 07:33:15;;;;;;;0.20;0.20;;;;;;;;;;4957449;28;20050;-92
2023/10/07 07:35:51;;;;;;;0.17;0.17;;;;;;;;;;4941166;28;20444;-91
2023/10/07 07:38:29;;;;;;;0.10;0.10;;;;;;;;;;4941024;28;20090;-91
2023/10/07 07:41:05;;;;;;;0.25;0.25;;;;;;;;;;4957044;28;20035;-90
2023/10/07 07:43:36;;;;;;;0.10;0.10;;;;;;;;;;4926345;28;20387;-88
2023/10/07 07:46:17;;;;;;;0.10;0.10;;;;;;;;;;4943249;28;20086;-86
2023/10/07 07:48:44;;;;;;;0.20;0.20;;;;;;;;;;4929053;28;20400;-87
2023/10/07 07:51:11;;;;;;;0.10;0.10;;;;;;;;;;4943728;28;20447;-90
2023/10/07 07:53:40;;;;;;;0.10;0.10;;;;;;;;;;4929361;28;20043;-93
2023/10/07 07:56:08;;;;;;;0.20;0.20;;;;;;;;;;4930981;28;20050;-92
2023/10/07 07:58:37;;;;;;;0.13;0.13;;;;;;;;;;4929512;28;20046;-92
2023/10/07 08:01:06;;;;;;;0.10;0.10;;;;;;;;;;4929481;28;20099;-90
2023/10/07 08:03:37;;;;;;;0.10;0.10;;;;;;;;;;4945509;28;20400;-91
2023/10/07 08:06:04;;;;;;;0.10;0.10;;;;;;;;;;4929874;28;20050;-91
2023/10/07 08:08:30;;;;;;;0.13;0.13;;;;;;;;;;4928642;28;20050;-92
2023/10/07 08:10:57;;;;;;;0.10;0.10;;;;;;;;;;4927992;28;20456;-92
2023/10/07 08:13:24;;;;;;;0.10;0.10;;;;;;;;;;4943652;28;20078;-90
2023/10/07 08:15:53;;;;;;;0.20;0.20;;;;;;;;;;4927525;28;20043;-88
2023/10/07 08:18:31;;;;;;;0.30;0.30;;;;;;;;;;4943577;28;20188;-88
2023/10/07 08:21:06;;;;;;;0.20;0.20;;;;;;;;;;4959434;28;20045;-88
2023/10/07 08:23:36;;;;;;;0.10;0.10;;;;;;;;;;4944345;28;20046;-89
2023/10/07 08:26:11;;;;;;;0.10;0.10;;;;;;;;;;4927265;28;20043;-89
2023/10/07 08:28:46;;;;;;;0.20;0.20;;;;;;;;;;4942551;28;20522;-90
2023/10/07 08:31:20;;;;;;;0.20;0.20;;;;;;;;;;4942892;28;20078;-89
2023/10/07 08:36:31;;;;;;;0.20;0.20;;;;;;;;;;4939511;29;20452;-91
2023/10/07 08:39:04;;;;;;;0.10;0.10;;;;;;;;;;4923707;29;20047;-91
2023/10/07 08:41:31;;;;;;;0.10;0.10;;;;;;;;;;4909410;29;20045;-92
2023/10/07 08:44:16;;;;;;;0.13;0.13;;;;;;;;;;4924903;29;20095;-92
2023/10/07 08:46:48;;;;;;;0.20;0.20;;;;;;;;;;4924772;29;20047;-92
2023/10/07 08:49:24;;;;;;;0.20;0.20;;;;;;;;;;4944363;28;20042;-92
2023/10/07 08:51:52;;;;;;;0.10;0.10;;;;;;;;;;4961172;28;20373;-90
2023/10/07 08:54:18;;;;;;;0.80;0.77;;;;;;;;;;4932857;28;20043;-92
2023/10/07 08:56:54;;;;;;;0.45;0.45;;;;;;;;;;4943322;28;20046;-94
2023/10/07 08:59:54;;;;;;;0.13;0.13;;;;;;;;;;4929245;28;20179;-95
2023/10/07 09:02:30;;;;;;;0.35;0.30;;;;;;;;;;4895854;28;20101;-89
2023/10/07 09:05:05;;;;;;;0.10;0.10;;;;;;;;;;4946262;28;20118;-91
2023/10/07 09:07:32;;;;;;;0.30;0.20;;;;;;;;;;4927628;28;20069;-91
2023/10/07 09:10:06;;;;;;;0.30;0.30;;;;;;;;;;4942396;28;20315;-89
2023/10/07 09:12:39;;;;;;;0.20;0.20;;;;;;;;;;4927187;28;20043;-90
2023/10/07 09:15:12;;;;;;;0.13;0.13;;;;;;;;;;4926345;29;20480;-92
2023/10/07 09:17:41;;;;;;;1.55;0.52;;;;;;;;;;4908898;29;20055;-92
2023/10/07 09:20:17;;;;;;;0.63;0.45;;;;;;;;;;4926898;28;20050;-92
2023/10/07 09:22:46;;;;;;;0.10;0.10;;;;;;;;;;4927796;28;20081;-91
2023/10/07 09:25:18;;;;;;;0.17;0.17;;;;;;;;;;4909317;29;20043;-92
2023/10/07 09:27:56;;;;;;;0.20;0.20;;;;;;;;;;4908526;29;20452;-91
2023/10/07 09:33:35;;;;;;;0.10;0.10;;;;;;;;;;4899631;29;20146;-93
2023/10/07 09:38:48;;;;;;;0.20;0.20;;;;;;;;;;4937802;28;20121;-93
2023/10/07 09:43:48;;;;;;;0.10;0.10;;;;;;;;;;4954478;28;20170;-92
2023/10/07 09:46:24;;;;;;;0.20;0.20;;;;;;;;;;4925941;28;20094;-92
2023/10/07 09:48:56;;;;;;;0.57;0.35;;;;;;;;;;4927277;28;20417;-91
2023/10/07 09:52:15;;;;;;;0.98;0.20;;;;;;;;;;4945833;28;20056;-92
2023/10/07 09:54:26;;;;;;;0.15;0.15;;;;;;;;;;4962534;28;20133;-91
2023/10/07 09:57:29;;;;;;;0.20;0.20;;;;;;;;;;4945135;28;20046;-91
2023/10/07 10:00:37;;;;;;;0.20;0.20;;;;;;;;;;4944914;29;20054;-92
2023/10/07 10:03:15;;;;;;;0.10;0.10;;;;;;;;;;4939783;29;20054;-93
2023/10/07 10:05:50;;;;;;;0.30;0.30;;;;;;;;;;4941999;28;20039;-95
2023/10/07 10:08:28;;;;;;;0.17;0.17;;;;;;;;;;4943900;28;20102;-92
2023/10/07 10:10:58;;;;;;;0.10;0.10;;;;;;;;;;4921216;28;20035;-94
2023/10/07 10:14:16;;;;;;;0.88;0.80;;;;;;;;;;4922475;28;20066;-92
2023/10/07 10:16:44;;;;;;;0.10;0.10;;;;;;;;;;4933615;28;20050;-92
2023/10/07 10:19:22;;;;;;;0.10;0.10;;;;;;;;;;4929048;28;20134;-92
2023/10/07 10:21:48;;;;;;;0.35;0.35;;;;;;;;;;4927456;28;20117;-91
2023/10/07 10:24:15;;;;;;;0.10;0.10;;;;;;;;;;4941352;28;20102;-91
2023/10/07 10:26:41;;;;;;;0.30;0.30;;;;;;;;;;4941612;28;20121;-93
2023/10/07 10:29:15;;;;;;;0.20;0.20;;;;;;;;;;4926461;28;20046;-93
2023/10/07 10:31:48;;;;;;;1.08;0.75;;;;;;;;;;4926815;28;20409;-92
2023/10/07 10:34:14;;;;;;;0.20;0.20;;;;;;;;;;4925461;28;20096;-92
2023/10/07 10:36:43;;;;;;;0.40;0.20;;;;;;;;;;4941263;28;20054;-92
2023/10/07 10:39:18;;;;;;;0.85;0.55;;;;;;;;;;4941453;28;20051;-95
2023/10/07 10:41:45;;;;;;;0.28;0.28;;;;;;;;;;4941577;28;20514;-94
2023/10/07 10:44:11;;;;;;;0.98;0.98;;;;;;;;;;4925546;28;20499;-93
2023/10/07 10:46:44;;;;;;;5.47;0.50;;;;;;;;;;4925791;28;20051;-96
2023/10/07 10:49:17;;;;;;;0.20;0.20;;;;;;;;;;4942901;28;20399;-93
2023/10/07 10:51:45;;;;;;;1.05;0.95;;;;;;;;;;4941458;28;20043;-92
2023/10/07 10:54:15;;;;;;;0.20;0.20;;;;;;;;;;4925336;28;20126;-94
2023/10/07 10:57:05;;;;;;;0.10;0.10;;;;;;;;;;4940839;28;20042;-92
2023/10/07 11:00:11;;;;;;;0.35;0.20;;;;;;;;;;4926921;28;20053;-94
2023/10/07 11:02:39;;;;;;;0.40;0.40;;;;;;;;;;4950696;28;20050;-95
2023/10/07 11:05:09;;;;;;;0.17;0.17;;;;;;;;;;4943157;28;20135;-95
2023/10/07 11:07:36;;;;;;;0.10;0.10;;;;;;;;;;4944328;28;20093;-90
2023/10/07 11:10:04;;;;;;;0.10;0.10;;;;;;;;;;4926688;28;20046;-94
2023/10/07 11:12:41;;;;;;;0.38;0.38;;;;;;;;;;4908993;29;20074;-94
2023/10/07 11:15:12;;;;;;;0.20;0.20;;;;;;;;;;4909304;29;20047;-96
2023/10/07 11:17:42;;;;;;;3.50;0.75;;;;;;;;;;4925126;29;20051;-94
2023/10/07 11:20:19;;;;;;;0.20;0.20;;;;;;;;;;4911081;29;20408;-95
2023/10/07 11:22:49;;;;;;;0.15;0.15;;;;;;;;;;4944000;29;20035;-94
2023/10/07 11:25:15;;;;;;;0.15;0.13;;;;;;;;;;4927472;29;20138;-94
2023/10/07 11:27:46;;;;;;;0.95;0.95;;;;;;;;;;4926999;29;20484;-93
2023/10/07 11:30:14;;;;;;;0.10;0.10;;;;;;;;;;4927412;29;20043;-95
2023/10/07 11:32:40;;;;;;;0.30;0.30;;;;;;;;;;4928385;29;20039;-95
2023/10/07 11:35:31;;;;;;;0.22;0.22;;;;;;;;;;4941599;29;20031;-93
2023/10/07 11:38:02;;;;;;;0.10;0.10;;;;;;;;;;4943784;29;20101;-93
2023/10/07 11:40:30;;;;;;;0.10;0.10;;;;;;;;;;4930429;29;20047;-94
2023/10/07 11:42:58;;;;;;;0.20;0.20;;;;;;;;;;4927208;29;20046;-96
2023/10/07 11:45:27;;;;;;;1.65;0.30;;;;;;;;;;4927209;29;20087;-95
2023/10/07 11:47:57;;;;;;;0.10;0.10;;;;;;;;;;4927038;29;20551;-94
2023/10/07 11:50:23;;;;;;;0.10;0.10;;;;;;;;;;4926920;29;20047;-95
2023/10/07 11:52:50;;;;;;;0.75;0.60;;;;;;;;;;4926559;29;20050;-95
2023/10/07 11:55:17;;;;;;;0.20;0.20;;;;;;;;;;4911566;29;20040;-94
2023/10/07 11:57:43;;;;;;;0.13;0.13;;;;;;;;;;4926732;29;20043;-94
2023/10/07 12:00:22;;;;;;;0.10;0.10;;;;;;;;;;4941063;29;20500;-91
2023/10/07 12:02:49;;;;;;;0.22;0.22;;;;;;;;;;4911386;29;20095;-92
2023/10/07 12:05:15;;;;;;;0.30;0.30;;;;;;;;;;4925183;29;20477;-92
2023/10/07 12:07:47;;;;;;;0.20;0.20;;;;;;;;;;4926423;29;20504;-95
2023/10/07 12:10:17;;;;;;;0.65;0.65;;;;;;;;;;4939786;28;20141;-94
2023/10/07 12:12:43;;;;;;;0.10;0.10;;;;;;;;;;4942376;28;20046;-95
2023/10/07 12:15:15;;;;;;;0.13;0.13;;;;;;;;;;4948291;28;20051;-92
2023/10/07 12:17:43;;;;;;;0.90;0.47;;;;;;;;;;4928363;28;20042;-91
2023/10/07 12:20:12;;;;;;;0.55;0.45;;;;;;;;;;4958157;28;20142;-92
2023/10/07 12:22:45;;;;;;;0.20;0.20;;;;;;;;;;4963904;28;20042;-92
2023/10/07 12:25:18;;;;;;;0.20;0.20;;;;;;;;;;4937564;28;20396;-92
2023/10/07 12:27:44;;;;;;;0.10;0.10;;;;;;;;;;4928605;28;20106;-93
2023/10/07 12:30:11;;;;;;;0.10;0.10;;;;;;;;;;4929716;28;20042;-92
2023/10/07 12:32:43;;;;;;;0.15;0.15;;;;;;;;;;4962712;28;20046;-91
2023/10/07 12:35:09;;;;;;;0.10;0.10;;;;;;;;;;4953671;28;20406;-94
2023/10/07 12:37:38;;;;;;;0.28;0.28;;;;;;;;;;4927267;28;20047;-93
2023/10/07 12:40:10;;;;;;;0.40;0.40;;;;;;;;;;4927569;28;20062;-92
2023/10/07 12:42:36;;;;;;;0.30;0.30;;;;;;;;;;4928517;28;20042;-91
2023/10/07 12:45:02;;;;;;;0.30;0.30;;;;;;;;;;4927204;28;20185;-92
2023/10/07 12:47:29;;;;;;;0.10;0.10;;;;;;;;;;4943034;28;20046;-88
2023/10/07 12:49:55;;;;;;;0.32;0.32;;;;;;;;;;4926643;28;20547;-91
2023/10/07 12:52:24;;;;;;;0.20;0.20;;;;;;;;;;4926172;28;20055;-89
2023/10/07 12:54:50;;;;;;;0.10;0.10;;;;;;;;;;4926934;28;20056;-90
2023/10/07 12:57:16;;;;;;;0.10;0.10;;;;;;;;;;4927332;28;20039;-93
2023/10/07 12:59:42;;;;;;;0.10;0.10;;;;;;;;;;4926933;28;20078;-91
2023/10/07 13:02:17;;;;;;;0.20;0.20;;;;;;;;;;4926790;28;20114;-90
2023/10/07 13:04:44;;;;;;;0.10;0.10;;;;;;;;;;4927823;28;20043;-89
2023/10/07 13:07:11;;;;;;;0.10;0.10;;;;;;;;;;4942908;28;20039;-89
2023/10/07 13:09:40;;;;;;;0.20;0.20;;;;;;;;;;4942602;28;20081;-90
2023/10/07 13:12:12;;;;;;;0.32;0.32;;;;;;;;;;4927146;28;20038;-91
2023/10/07 13:14:40;;;;;;;0.40;0.40;;;;;;;;;;4943411;28;20053;-90
2023/10/07 13:17:06;;;;;;;0.40;0.40;;;;;;;;;;4927433;28;20043;-92
2023/10/07 13:19:35;;;;;;;0.20;0.20;;;;;;;;;;4942300;28;20047;-92
2023/10/07 13:22:02;;;;;;;0.20;0.20;;;;;;;;;;4942939;28;20042;-92
2023/10/07 13:24:29;;;;;;;0.10;0.10;;;;;;;;;;4927011;28;20480;-90
2023/10/07 13:26:55;;;;;;;0.20;0.20;;;;;;;;;;4926647;28;20042;-91
2023/10/07 13:29:22;;;;;;;0.32;0.28;;;;;;;;;;4958280;28;20555;-92
2023/10/07 13:31:48;;;;;;;0.20;0.20;;;;;;;;;;4942298;28;20135;-91
2023/10/07 13:34:16;;;;;;;0.52;0.30;;;;;;;;;;4926072;28;20455;-90
2023/10/07 13:36:43;;;;;;;0.52;0.52;;;;;;;;;;4926499;28;20506;-92
2023/10/07 13:39:15;;;;;;;0.20;0.20;;;;;;;;;;4926815;28;20487;-91
2023/10/07 13:41:43;;;;;;;0.70;0.35;;;;;;;;;;4927400;28;20042;-92
2023/10/07 13:44:12;;;;;;;0.20;0.20;;;;;;;;;;4942417;28;20053;-91
2023/10/07 13:46:38;;;;;;;0.10;0.10;;;;;;;;;;4925956;28;20051;-92
2023/10/07 13:49:08;;;;;;;0.68;0.40;;;;;;;;;;4925851;28;20105;-92
2023/10/07 13:51:43;;;;;;;0.20;0.20;;;;;;;;;;4926791;28;20043;-91
2023/10/07 13:54:38;;;;;;;0.10;0.10;;;;;;;;;;4926322;28;20456;-90
2023/10/07 13:57:09;;;;;;;0.47;0.28;;;;;;;;;;4944997;28;20086;-90
2023/10/07 13:59:39;;;;;;;0.10;0.10;;;;;;;;;;4957121;28;20046;-91
2023/10/07 14:02:13;;;;;;;0.20;0.20;;;;;;;;;;4926094;28;20078;-91
2023/10/07 14:04:39;;;;;;;0.20;0.20;;;;;;;;;;4926499;28;20046;-90
2023/10/07 14:07:05;;;;;;;0.20;0.20;;;;;;;;;;4942058;28;20080;-90
2023/10/07 14:09:31;;;;;;;0.20;0.20;;;;;;;;;;4925702;28;20075;-92
2023/10/07 14:11:57;;;;;;;0.20;0.20;;;;;;;;;;4942134;28;20046;-92
2023/10/07 14:14:24;;;;;;;0.10;0.10;;;;;;;;;;4925934;28;20456;-92
2023/10/07 14:16:58;;;;;;;0.10;0.10;;;;;;;;;;4925613;28;20047;-92
2023/10/07 14:19:24;;;;;;;0.10;0.10;;;;;;;;;;4941560;28;20488;-92
2023/10/07 14:21:50;;;;;;;0.20;0.20;;;;;;;;;;4925989;28;20039;-91
2023/10/07 14:24:16;;;;;;;0.47;0.47;;;;;;;;;;4926172;28;20126;-91
2023/10/07 14:26:43;;;;;;;0.52;0.52;;;;;;;;;;4926063;28;20488;-92
2023/10/07 14:29:11;;;;;;;1.00;1.00;;;;;;;;;;4925525;28;20163;-92
2023/10/07 14:31:37;;;;;;;0.40;0.40;;;;;;;;;;4926844;28;20042;-93
2023/10/07 14:34:07;;;;;;;0.40;0.40;;;;;;;;;;4926559;28;20050;-93
2023/10/07 14:36:34;;;;;;;0.20;0.20;;;;;;;;;;4927036;28;20039;-93
2023/10/07 14:39:02;;;;;;;0.10;0.10;;;;;;;;;;4929004;28;20053;-93
2023/10/07 14:41:30;;;;;;;0.10;0.10;;;;;;;;;;4960741;28;20045;-94
2023/10/07 14:43:56;;;;;;;0.45;0.30;;;;;;;;;;4961185;28;20048;-94
2023/10/07 14:46:23;;;;;;;0.20;0.20;;;;;;;;;;4976879;28;20058;-95
2023/10/07 14:48:50;;;;;;;0.40;0.35;;;;;;;;;;4960209;28;20054;-91
2023/10/07 14:51:17;;;;;;;0.43;0.43;;;;;;;;;;4960268;28;20049;-91
2023/10/07 14:53:43;;;;;;;0.20;0.20;;;;;;;;;;4959592;28;20148;-91
2023/10/07 14:56:10;;;;;;;0.20;0.20;;;;;;;;;;4960401;28;20402;-91
2023/10/07 14:58:36;;;;;;;0.32;0.32;;;;;;;;;;4960457;28;20046;-92
2023/10/07 15:01:02;;;;;;;0.82;0.35;;;;;;;;;;4960066;28;20042;-92
2023/10/07 15:03:30;;;;;;;0.77;0.40;;;;;;;;;;4960488;28;20042;-93
2023/10/07 15:05:56;;;;;;;0.10;0.10;;;;;;;;;;4960257;28;20042;-93
2023/10/07 15:08:23;;;;;;;0.20;0.20;;;;;;;;;;4960588;28;20042;-92
2023/10/07 15:10:49;;;;;;;0.10;0.10;;;;;;;;;;4961281;28;20112;-93
2023/10/07 15:13:15;;;;;;;0.20;0.20;;;;;;;;;;4959879;28;20042;-93
2023/10/07 15:15:42;;;;;;;0.25;0.25;;;;;;;;;;4960602;28;20106;-92
2023/10/07 15:18:09;;;;;;;0.10;0.10;;;;;;;;;;4961428;28;20084;-94
2023/10/07 15:20:35;;;;;;;0.10;0.10;;;;;;;;;;4961636;28;20043;-95
2023/10/07 15:23:02;;;;;;;0.20;0.20;;;;;;;;;;4961750;28;20042;-93
2023/10/07 15:25:28;;;;;;;0.10;0.10;;;;;;;;;;4960402;28;20038;-93
2023/10/07 15:27:54;;;;;;;0.20;0.20;;;;;;;;;;4960576;28;20051;-94
2023/10/07 15:30:20;;;;;;;0.20;0.20;;;;;;;;;;4960901;28;20042;-94
2023/10/07 15:32:46;;;;;;;0.20;0.20;;;;;;;;;;4960964;28;20125;-94
2023/10/07 15:35:12;;;;;;;0.15;0.15;;;;;;;;;;4960495;28;20037;-93
2023/10/07 15:37:38;;;;;;;0.63;0.30;;;;;;;;;;4961131;28;20495;-91
2023/10/07 15:40:08;;;;;;;0.20;0.20;;;;;;;;;;4963437;28;20042;-93